Airfield :
LOGIN :

Register | Disclaimer

   EN    FR    IT 

 










Legend :    VFR   Marginal VFR   IFR   Intensive IFR   Very Intensive IFR
Visi :
Ceiling :
>= 8 km
>= 3000ft
5 to 8 km
1000 to 3000 ft
1500m to 5 km
500 to 1000 ft
800 to 1500m
200 to 500 ft
< 800m
< 200 ft
Symbols :   Thunderstorms  Fog  Heavy snow  Heavy precipitations  Wind > 20 kt
SIGMETs :     Misc.  Thunderstorms  Icing  Turbulence  Mountain Waves  Volcanic Ashes






- Airport Elevation : 66 ft
- IATA code : EJH


OEWJ - Wejh

CURRENT METAR :
  • 151600Z 30012KT CAVOK 33/26 Q1000 NOSIG

EXPIRED METARs :
  • 151500Z 30011KT CAVOK 33/28 Q1000 NOSIG
  • 151400Z 29011KT CAVOK 34/28 Q1000 NOSIG

TAF TAF OEWJ
Valid from the 15 at 12:00 until the 16 at 18:00 UTC


151100Z 1512/1618 33013KT CAVOK
BECMG 1520/1522 VRB03KT
BECMG 1603/1605 09008KT
OEJD FIR / Asia



MET'MAP, your aeronautical weather chart ! - Copyright ORBIFLY December 2007 - Disclaimer

ORBIFLY MET'MAP TEAM :

Programming & Development : Alexandra Zaïnal
Concept & original design : Baudouin d'Aumeries
Assistance for programming : Marc-Olivier Méhu
Technical & hardware support : Manuel Goepfert

Contact : metmap@orbifly.com




SOURCES & CREDITS :

   NOAA